createdAt,value
2022-10-11T00:00:14.303Z,82.64
2022-10-11T00:05:15.530Z,82.56
2022-10-11T00:10:16.725Z,83.25
2022-10-11T00:15:17.948Z,84.13
2022-10-11T00:20:19.157Z,82.74
2022-10-11T00:25:20.408Z,81.99
2022-10-11T00:30:21.648Z,81.92
2022-10-11T00:35:22.913Z,82.24
2022-10-11T00:40:24.268Z,82.46
2022-10-11T00:45:25.519Z,84.31
2022-10-11T00:50:26.723Z,84.38
2022-10-11T00:55:28.289Z,84.86
2022-10-11T01:00:29.495Z,84.28
2022-10-11T01:05:30.810Z,83.95
2022-10-11T01:10:32.044Z,83.77
2022-10-11T01:15:33.280Z,83.99
2022-10-11T01:20:34.489Z,84.16
2022-10-11T01:25:35.690Z,83.38
2022-10-11T01:30:36.899Z,83.64
2022-10-11T01:35:38.133Z,83.42
2022-10-11T01:40:39.339Z,83.18
2022-10-11T01:45:41.475Z,86.33
2022-10-11T01:50:42.738Z,86.22
2022-10-11T01:55:44.210Z,85.76
2022-10-11T02:00:45.553Z,84.72
2022-10-11T02:05:46.773Z,84.75
2022-10-11T02:10:48.053Z,84.66
2022-10-11T02:15:49.269Z,83.95
2022-10-11T02:20:50.503Z,86.77
2022-10-11T02:25:51.707Z,85.86
2022-10-11T02:30:53.011Z,85.74
2022-10-11T02:35:54.210Z,84.79
2022-10-11T02:40:55.653Z,84.07
2022-10-11T02:45:56.860Z,85.15
2022-10-11T02:50:58.114Z,84.42
2022-10-11T02:55:59.367Z,83.81
2022-10-11T03:01:00.592Z,83.51
2022-10-11T03:06:02.193Z,82.86
2022-10-11T03:11:03.696Z,82.36
2022-10-11T03:16:04.945Z,82.44
2022-10-11T03:21:06.303Z,83.93
2022-10-11T03:26:08.057Z,84.14
2022-10-11T03:31:09.746Z,84.18
2022-10-11T03:36:10.938Z,83.81
2022-10-11T03:41:12.159Z,84.76
2022-10-11T03:46:13.357Z,85.02
2022-10-11T03:51:15.105Z,83.88
2022-10-11T03:56:16.636Z,83.10
2022-10-11T04:01:17.956Z,82.34
2022-10-11T04:06:19.203Z,82.96
2022-10-11T04:11:20.450Z,82.77
2022-10-11T04:16:21.640Z,82.26
2022-10-11T04:21:22.840Z,81.39
2022-10-11T04:26:24.051Z,82.04
2022-10-11T04:31:25.259Z,82.24
2022-10-11T04:36:26.612Z,82.47
2022-10-11T04:41:28.373Z,83.17
2022-10-11T04:46:29.599Z,84.46
2022-10-11T04:51:30.873Z,85.18
2022-10-11T04:56:32.089Z,85.05
2022-10-11T05:01:33.342Z,84.38
2022-10-11T05:06:34.622Z,84.44
2022-10-11T05:11:35.879Z,84.02
2022-10-11T05:16:37.086Z,84.19
2022-10-11T05:21:38.363Z,84.41
2022-10-11T05:26:39.575Z,83.56
2022-10-11T05:31:40.772Z,83.62
2022-10-11T05:36:41.987Z,83.59
2022-10-11T05:41:43.193Z,84.00
2022-10-11T05:46:44.454Z,84.28
2022-10-11T05:51:45.696Z,84.02
2022-10-11T05:56:46.944Z,85.97
2022-10-11T06:01:48.263Z,87.07
2022-10-11T06:06:49.485Z,86.24
2022-10-11T06:11:50.741Z,86.00
2022-10-11T06:16:52.269Z,85.61
2022-10-11T06:21:53.533Z,84.75
2022-10-11T06:26:55.639Z,83.77
2022-10-11T06:31:56.960Z,84.87
2022-10-11T06:36:58.276Z,85.64
2022-10-11T06:41:59.527Z,87.38
2022-10-11T06:47:00.850Z,86.45
2022-10-11T06:52:02.212Z,85.90
2022-10-11T06:57:03.538Z,86.02
2022-10-11T07:02:04.755Z,86.79
2022-10-11T07:07:05.968Z,87.54
2022-10-11T07:12:07.187Z,86.09
2022-10-11T07:17:08.394Z,85.74
2022-10-11T07:22:09.595Z,85.79
2022-10-11T07:27:10.815Z,86.79
2022-10-11T07:32:12.068Z,85.66
2022-10-11T07:37:13.311Z,84.79
2022-10-11T07:42:14.615Z,84.26
2022-10-11T07:47:15.840Z,83.76
2022-10-11T07:52:17.045Z,85.46
2022-10-11T07:57:18.245Z,86.83
2022-10-11T08:02:19.449Z,85.49
2022-10-11T08:07:20.681Z,85.66
2022-10-11T08:12:22.299Z,85.16
2022-10-11T08:17:23.512Z,87.54
2022-10-11T08:22:24.754Z,87.48
2022-10-11T08:27:25.967Z,88.63
2022-10-11T08:32:27.254Z,89.25
2022-10-11T08:37:28.633Z,84.92
2022-10-11T08:42:29.900Z,80.46
2022-10-11T08:47:31.119Z,83.90
2022-10-11T08:52:32.425Z,86.20
2022-10-11T08:57:34.479Z,86.48
2022-10-11T09:03:02.803Z,85.83
2022-10-11T09:07:56.909Z,86.63
2022-10-11T09:12:58.134Z,86.38
2022-10-11T09:17:59.326Z,86.64
2022-10-11T09:23:00.598Z,86.47
2022-10-11T09:28:03.589Z,86.90
2022-10-11T09:33:05.265Z,85.09
2022-10-11T09:38:06.477Z,83.69
2022-10-11T09:43:07.894Z,85.83
2022-10-11T09:48:09.411Z,84.29
2022-10-11T09:53:10.778Z,83.77
2022-10-11T09:58:11.993Z,83.30
2022-10-11T10:03:13.200Z,75.91
2022-10-11T10:08:14.524Z,71.80
2022-10-11T10:13:15.735Z,73.21
2022-10-11T10:18:16.974Z,69.23
2022-10-11T10:23:18.185Z,69.13
2022-10-11T10:28:28.451Z,68.34
2022-10-11T10:33:29.753Z,69.22
2022-10-11T10:38:31.371Z,68.50
2022-10-11T10:43:32.578Z,68.33
2022-10-11T10:49:01.710Z,68.18
2022-10-11T10:53:55.044Z,70.98
2022-10-11T10:58:56.258Z,72.29
2022-10-11T11:03:57.519Z,74.06
2022-10-11T11:08:58.765Z,72.41
2022-10-11T11:13:59.997Z,72.82
2022-10-11T11:19:01.239Z,70.08
2022-10-11T11:24:02.680Z,70.73
2022-10-11T11:29:04.078Z,70.95
2022-10-11T11:34:05.690Z,71.07
2022-10-11T11:39:06.885Z,68.29
2022-10-11T11:44:08.087Z,70.47
2022-10-11T11:49:12.830Z,69.94
2022-10-11T11:54:14.326Z,74.35
2022-10-11T11:59:15.563Z,72.87
2022-10-11T12:04:16.863Z,73.40
2022-10-11T12:09:18.117Z,74.26
2022-10-11T12:14:19.340Z,74.57
2022-10-11T12:19:20.614Z,74.44
2022-10-11T12:24:21.821Z,74.69
2022-10-11T12:29:28.453Z,74.24
2022-10-11T12:34:30.593Z,75.24
2022-10-11T12:39:31.873Z,75.94
2022-10-11T12:44:33.120Z,74.91
2022-10-11T12:49:36.293Z,76.03
2022-10-11T12:54:37.628Z,76.37
2022-10-11T12:59:38.856Z,76.85
2022-10-11T13:04:40.073Z,77.41
2022-10-11T13:09:45.327Z,77.85
2022-10-11T13:14:49.397Z,78.31
2022-10-11T13:19:50.617Z,79.15
2022-10-11T13:24:51.851Z,78.84
2022-10-11T13:29:53.101Z,79.45
2022-10-11T13:34:57.559Z,79.79
2022-10-11T13:39:58.948Z,79.23
2022-10-11T13:45:00.277Z,78.61
2022-10-11T13:50:01.619Z,78.14
2022-10-11T13:55:02.851Z,77.61
2022-10-11T14:00:04.268Z,77.08
2022-10-11T14:05:05.813Z,77.27
2022-10-11T14:10:07.172Z,75.76
2022-10-11T14:15:08.430Z,75.40
2022-10-11T14:20:11.549Z,75.52
2022-10-11T14:25:13.191Z,72.17
2022-10-11T14:30:30.173Z,70.77
2022-10-11T14:35:34.345Z,69.73
2022-10-11T14:40:36.045Z,69.46
2022-10-11T14:45:37.268Z,66.42
2022-10-11T14:50:39.201Z,66.00
2022-10-11T14:55:40.618Z,63.97
2022-10-11T15:00:41.836Z,62.76
2022-10-11T15:05:43.080Z,64.48
2022-10-11T15:10:44.314Z,63.72
2022-10-11T15:15:45.980Z,67.47
2022-10-11T15:20:48.486Z,70.83
2022-10-11T15:25:50.157Z,68.94
2022-10-11T15:30:51.600Z,69.20
2022-10-11T15:35:52.819Z,70.15
2022-10-11T15:40:54.100Z,71.65
2022-10-11T15:45:55.372Z,71.65
2022-10-11T15:50:56.835Z,71.58
2022-10-11T15:55:59.930Z,72.55
2022-10-11T16:01:01.921Z,72.86
2022-10-11T16:06:05.398Z,71.42
2022-10-11T16:11:07.243Z,68.26
2022-10-11T16:16:08.994Z,68.18
2022-10-11T16:21:10.897Z,70.94
2022-10-11T16:26:12.135Z,72.39
2022-10-11T16:31:13.447Z,73.07
2022-10-11T16:36:36.461Z,75.07
2022-10-11T16:41:38.064Z,77.00
2022-10-11T16:46:40.588Z,75.25
2022-10-11T16:51:41.854Z,75.24
2022-10-11T16:56:47.329Z,76.13
2022-10-11T17:01:48.550Z,75.74
2022-10-11T17:06:49.897Z,75.96
2022-10-11T17:11:51.128Z,76.83
2022-10-11T17:16:52.406Z,75.95
2022-10-11T17:21:53.694Z,74.83
2022-10-11T17:26:54.919Z,75.59
2022-10-11T17:31:56.245Z,74.88
2022-10-11T17:36:57.498Z,74.90
2022-10-11T17:42:04.377Z,75.56
2022-10-11T17:47:05.673Z,75.52
2022-10-11T17:52:06.907Z,75.36
2022-10-11T17:57:08.335Z,76.07
2022-10-11T18:02:09.677Z,76.04
2022-10-11T18:07:11.052Z,76.31
2022-10-11T18:12:12.600Z,76.58
2022-10-11T18:17:14.881Z,76.33
2022-10-11T18:22:16.098Z,75.81
2022-10-11T18:27:17.501Z,75.92
2022-10-11T18:32:18.821Z,76.55
2022-10-11T18:37:20.038Z,77.34
2022-10-11T18:42:21.430Z,76.66
2022-10-11T18:47:22.680Z,76.36
2022-10-11T18:52:23.917Z,76.63
2022-10-11T18:57:25.138Z,76.10
2022-10-11T19:02:26.411Z,76.28
2022-10-11T19:07:28.616Z,76.64
2022-10-11T19:12:29.829Z,77.00
2022-10-11T19:17:31.204Z,77.51
2022-10-11T19:22:32.442Z,77.21
2022-10-11T19:27:33.917Z,76.78
2022-10-11T19:32:35.577Z,76.13
2022-10-11T19:37:36.838Z,76.49
2022-10-11T19:42:38.082Z,76.13
2022-10-11T19:47:39.546Z,76.36
2022-10-11T19:52:44.798Z,76.83
2022-10-11T19:57:46.270Z,77.77
2022-10-11T20:02:47.478Z,78.75
2022-10-11T20:07:48.757Z,77.98
2022-10-11T20:12:50.367Z,77.93
2022-10-11T20:17:51.734Z,77.33
2022-10-11T20:22:56.544Z,77.72
2022-10-11T20:27:57.757Z,77.93
2022-10-11T20:32:58.974Z,78.01
2022-10-11T20:38:00.201Z,77.49
2022-10-11T20:43:01.418Z,78.41
2022-10-11T20:48:02.623Z,78.50
2022-10-11T20:53:03.831Z,78.75
2022-10-11T20:58:05.110Z,79.35
2022-10-11T21:03:06.346Z,80.08
2022-10-11T21:08:07.550Z,80.60
2022-10-11T21:13:09.267Z,82.02
2022-10-11T21:18:10.500Z,81.11
2022-10-11T21:23:11.706Z,82.10
2022-10-11T21:28:12.975Z,82.86
2022-10-11T21:33:14.199Z,82.94
2022-10-11T21:38:15.401Z,82.89
2022-10-11T21:43:16.605Z,83.77
2022-10-11T21:48:17.823Z,84.85
2022-10-11T21:53:19.027Z,85.75
2022-10-11T21:58:20.232Z,84.56
2022-10-11T22:03:21.490Z,84.36
2022-10-11T22:08:22.689Z,84.65
2022-10-11T22:13:24.058Z,84.46
2022-10-11T22:18:25.509Z,83.65
2022-10-11T22:23:26.714Z,83.16
2022-10-11T22:28:27.946Z,83.04
2022-10-11T22:33:29.238Z,82.07
2022-10-11T22:38:30.447Z,82.01
2022-10-11T22:43:31.645Z,81.14
2022-10-11T22:48:32.855Z,81.07
2022-10-11T22:53:34.073Z,80.81
2022-10-11T22:58:35.273Z,82.33
2022-10-11T23:03:36.644Z,81.91
2022-10-11T23:08:37.969Z,82.91
2022-10-11T23:13:39.199Z,82.66
2022-10-11T23:18:40.421Z,83.91
2022-10-11T23:23:41.670Z,83.84
2022-10-11T23:28:43.021Z,82.89
2022-10-11T23:33:44.311Z,83.27
2022-10-11T23:38:45.590Z,83.68
2022-10-11T23:43:46.802Z,83.76
2022-10-11T23:48:48.022Z,82.61
2022-10-11T23:53:49.348Z,81.38
2022-10-11T23:58:50.618Z,80.60
